sensor_id;sensor_type;location;lat;lon;timestamp;pressure;altitude;pressure_sealevel;temperature;humidity
7441;BME280;29616;51.950;8.572;2023-08-12T00:02:20;100185.41;;;20.97;100.00
7441;BME280;29616;51.950;8.572;2023-08-12T00:04:49;100171.75;;;20.89;100.00
7441;BME280;29616;51.950;8.572;2023-08-12T00:07:21;100175.38;;;20.96;100.00
7441;BME280;29616;51.950;8.572;2023-08-12T00:09:50;100175.56;;;21.01;100.00
7441;BME280;29616;51.950;8.572;2023-08-12T00:12:19;100167.03;;;20.96;100.00
7441;BME280;29616;51.950;8.572;2023-08-12T00:14:51;100179.84;;;21.10;100.00
7441;BME280;29616;51.950;8.572;2023-08-12T00:17:19;100173.38;;;21.16;100.00
7441;BME280;29616;51.950;8.572;2023-08-12T00:19:48;100174.88;;;21.19;100.00
7441;BME280;29616;51.950;8.572;2023-08-12T00:22:17;100199.06;;;21.18;100.00
7441;BME280;29616;51.950;8.572;2023-08-12T00:24:45;100206.78;;;21.09;100.00
7441;BME280;29616;51.950;8.572;2023-08-12T00:27:14;100170.03;;;20.88;100.00
7441;BME280;29616;51.950;8.572;2023-08-12T00:29:43;100201.19;;;21.03;100.00
7441;BME280;29616;51.950;8.572;2023-08-12T00:32:15;100212.31;;;21.03;100.00
7441;BME280;29616;51.950;8.572;2023-08-12T00:34:44;100190.97;;;20.97;100.00
7441;BME280;29616;51.950;8.572;2023-08-12T00:37:13;100205.94;;;20.96;100.00
7441;BME280;29616;51.950;8.572;2023-08-12T00:39:45;100207.63;;;20.97;100.00
7441;BME280;29616;51.950;8.572;2023-08-12T00:42:16;100216.19;;;20.95;100.00
7441;BME280;29616;51.950;8.572;2023-08-12T00:44:45;100179.88;;;20.84;100.00
7441;BME280;29616;51.950;8.572;2023-08-12T00:47:21;100208.31;;;20.86;100.00
7441;BME280;29616;51.950;8.572;2023-08-12T00:49:51;100199.09;;;20.79;100.00
7441;BME280;29616;51.950;8.572;2023-08-12T00:52:21;100213.22;;;20.71;100.00
7441;BME280;29616;51.950;8.572;2023-08-12T00:54:52;100223.94;;;20.67;100.00
7441;BME280;29616;51.950;8.572;2023-08-12T00:57:22;100208.13;;;20.61;100.00
7441;BME280;29616;51.950;8.572;2023-08-12T00:59:56;100198.06;;;20.80;100.00
7441;BME280;29616;51.950;8.572;2023-08-12T01:02:30;100180.53;;;20.86;100.00
7441;BME280;29616;51.950;8.572;2023-08-12T01:05:02;100173.41;;;21.03;100.00
7441;BME280;29616;51.950;8.572;2023-08-12T01:07:31;100193.94;;;21.02;100.00
7441;BME280;29616;51.950;8.572;2023-08-12T01:10:03;100219.19;;;21.07;100.00
7441;BME280;29616;51.950;8.572;2023-08-12T01:12:37;100216.41;;;21.07;100.00
7441;BME280;29616;51.950;8.572;2023-08-12T01:15:15;100213.19;;;21.10;100.00
7441;BME280;29616;51.950;8.572;2023-08-12T01:17:52;100181.97;;;20.95;100.00
7441;BME280;29616;51.950;8.572;2023-08-12T01:20:25;100187.09;;;21.11;100.00
7441;BME280;29616;51.950;8.572;2023-08-12T01:23:13;100190.09;;;21.09;100.00
7441;BME280;29616;51.950;8.572;2023-08-12T01:25:44;100196.09;;;21.13;100.00
7441;BME280;29616;51.950;8.572;2023-08-12T01:28:16;100183.63;;;21.22;100.00
7441;BME280;29616;51.950;8.572;2023-08-12T01:30:55;100164.50;;;21.45;100.00
7441;BME280;29616;51.950;8.572;2023-08-12T01:33:33;100175.75;;;21.63;100.00
7441;BME280;29616;51.950;8.572;2023-08-12T01:36:12;100177.81;;;21.74;100.00
7441;BME280;29616;51.950;8.572;2023-08-12T01:38:45;100173.34;;;21.73;100.00
7441;BME280;29616;51.950;8.572;2023-08-12T01:41:20;100184.19;;;21.82;100.00
7441;BME280;29616;51.950;8.572;2023-08-12T01:43:52;100178.22;;;21.78;100.00
7441;BME280;29616;51.950;8.572;2023-08-12T01:46:21;100185.72;;;21.77;100.00
7441;BME280;29616;51.950;8.572;2023-08-12T01:48:52;100175.09;;;21.61;100.00
7441;BME280;29616;51.950;8.572;2023-08-12T01:51:22;100193.31;;;21.57;100.00
7441;BME280;29616;51.950;8.572;2023-08-12T01:53:53;100191.66;;;21.43;100.00
7441;BME280;29616;51.950;8.572;2023-08-12T01:56:22;100209.22;;;21.37;100.00
7441;BME280;29616;51.950;8.572;2023-08-12T01:58:51;100193.31;;;21.06;100.00
7441;BME280;29616;51.950;8.572;2023-08-12T02:01:23;100217.84;;;21.03;100.00
7441;BME280;29616;51.950;8.572;2023-08-12T02:03:53;100220.47;;;20.91;100.00
7441;BME280;29616;51.950;8.572;2023-08-12T02:06:22;100220.03;;;20.81;100.00
7441;BME280;29616;51.950;8.572;2023-08-12T02:08:53;100209.81;;;20.75;100.00
7441;BME280;29616;51.950;8.572;2023-08-12T02:11:22;100184.41;;;20.65;100.00
7441;BME280;29616;51.950;8.572;2023-08-12T02:13:52;100211.50;;;20.76;100.00
7441;BME280;29616;51.950;8.572;2023-08-12T02:16:21;100210.25;;;20.66;100.00
7441;BME280;29616;51.950;8.572;2023-08-12T02:18:50;100209.84;;;20.62;100.00
7441;BME280;29616;51.950;8.572;2023-08-12T02:21:21;100220.06;;;20.55;100.00
7441;BME280;29616;51.950;8.572;2023-08-12T02:23:49;100225.66;;;20.48;100.00
7441;BME280;29616;51.950;8.572;2023-08-12T02:26:21;100234.19;;;20.40;100.00
7441;BME280;29616;51.950;8.572;2023-08-12T02:28:50;100243.13;;;20.36;100.00
7441;BME280;29616;51.950;8.572;2023-08-12T02:31:23;100241.41;;;20.28;100.00
7441;BME280;29616;51.950;8.572;2023-08-12T02:33:54;100231.78;;;20.18;100.00
7441;BME280;29616;51.950;8.572;2023-08-12T02:36:24;100230.28;;;20.09;100.00
7441;BME280;29616;51.950;8.572;2023-08-12T02:38:55;100230.25;;;20.02;100.00
7441;BME280;29616;51.950;8.572;2023-08-12T02:41:27;100216.41;;;19.95;100.00
7441;BME280;29616;51.950;8.572;2023-08-12T02:43:56;100193.09;;;19.83;100.00
7441;BME280;29616;51.950;8.572;2023-08-12T02:46:25;100201.66;;;19.82;100.00
7441;BME280;29616;51.950;8.572;2023-08-12T02:48:54;100198.22;;;19.80;100.00
7441;BME280;29616;51.950;8.572;2023-08-12T02:51:22;100200.16;;;19.79;100.00
7441;BME280;29616;51.950;8.572;2023-08-12T02:53:52;100191.84;;;19.79;100.00
7441;BME280;29616;51.950;8.572;2023-08-12T02:56:23;100192.44;;;19.75;100.00
7441;BME280;29616;51.950;8.572;2023-08-12T02:58:54;100206.31;;;19.75;100.00
7441;BME280;29616;51.950;8.572;2023-08-12T03:01:23;100210.75;;;19.69;100.00
7441;BME280;29616;51.950;8.572;2023-08-12T03:03:55;100207.13;;;19.62;100.00
7441;BME280;29616;51.950;8.572;2023-08-12T03:06:25;100209.03;;;19.55;100.00
7441;BME280;29616;51.950;8.572;2023-08-12T03:08:55;100206.63;;;19.46;100.00
7441;BME280;29616;51.950;8.572;2023-08-12T03:11:24;100218.81;;;19.45;100.00
7441;BME280;29616;51.950;8.572;2023-08-12T03:13:57;100210.91;;;19.42;100.00
7441;BME280;29616;51.950;8.572;2023-08-12T03:16:27;100214.31;;;19.44;100.00
7441;BME280;29616;51.950;8.572;2023-08-12T03:18:59;100207.50;;;19.40;100.00
7441;BME280;29616;51.950;8.572;2023-08-12T03:21:29;100189.94;;;19.32;100.00
7441;BME280;29616;51.950;8.572;2023-08-12T03:23:58;100205.97;;;19.37;100.00
7441;BME280;29616;51.950;8.572;2023-08-12T03:26:29;100201.28;;;19.38;100.00
7441;BME280;29616;51.950;8.572;2023-08-12T03:29:02;100210.50;;;19.45;100.00
7441;BME280;29616;51.950;8.572;2023-08-12T03:31:32;100206.41;;;19.41;100.00
7441;BME280;29616;51.950;8.572;2023-08-12T03:34:01;100200.88;;;19.41;100.00
7441;BME280;29616;51.950;8.572;2023-08-12T03:36:35;100206.22;;;19.42;100.00
7441;BME280;29616;51.950;8.572;2023-08-12T03:39:04;100207.50;;;19.40;100.00
7441;BME280;29616;51.950;8.572;2023-08-12T03:41:33;100206.81;;;19.38;100.00
7441;BME280;29616;51.950;8.572;2023-08-12T03:44:07;100201.09;;;19.39;100.00
7441;BME280;29616;51.950;8.572;2023-08-12T03:46:37;100200.44;;;19.44;100.00
7441;BME280;29616;51.950;8.572;2023-08-12T03:49:06;100202.81;;;19.47;100.00
7441;BME280;29616;51.950;8.572;2023-08-12T03:51:36;100185.97;;;19.42;100.00
7441;BME280;29616;51.950;8.572;2023-08-12T03:54:08;100193.44;;;19.48;100.00
7441;BME280;29616;51.950;8.572;2023-08-12T03:56:37;100204.09;;;19.44;100.00
7441;BME280;29616;51.950;8.572;2023-08-12T03:59:13;100194.94;;;19.50;100.00
7441;BME280;29616;51.950;8.572;2023-08-12T04:01:43;100199.63;;;19.50;100.00
7441;BME280;29616;51.950;8.572;2023-08-12T04:04:13;100196.41;;;19.46;100.00
7441;BME280;29616;51.950;8.572;2023-08-12T04:06:42;100195.13;;;19.49;100.00
7441;BME280;29616;51.950;8.572;2023-08-12T04:09:11;100201.53;;;19.49;100.00
7441;BME280;29616;51.950;8.572;2023-08-12T04:11:39;100207.13;;;19.56;100.00
7441;BME280;29616;51.950;8.572;2023-08-12T04:14:09;100208.81;;;19.57;100.00
7441;BME280;29616;51.950;8.572;2023-08-12T04:16:40;100202.00;;;19.59;100.00
7441;BME280;29616;51.950;8.572;2023-08-12T04:19:09;100180.47;;;19.55;100.00
7441;BME280;29616;51.950;8.572;2023-08-12T04:21:37;100193.50;;;19.61;100.00
7441;BME280;29616;51.950;8.572;2023-08-12T04:24:08;100193.50;;;19.67;100.00
7441;BME280;29616;51.950;8.572;2023-08-12T04:26:37;100195.41;;;19.67;100.00
7441;BME280;29616;51.950;8.572;2023-08-12T04:29:09;100190.94;;;19.66;100.00
7441;BME280;29616;51.950;8.572;2023-08-12T04:31:43;100192.44;;;19.68;100.00
7441;BME280;29616;51.950;8.572;2023-08-12T04:34:16;100185.81;;;19.69;100.00
7441;BME280;29616;51.950;8.572;2023-08-12T04:36:47;100183.94;;;19.76;100.00
7441;BME280;29616;51.950;8.572;2023-08-12T04:39:16;100176.66;;;19.75;100.00
7441;BME280;29616;51.950;8.572;2023-08-12T04:41:45;100162.13;;;19.67;100.00
7441;BME280;29616;51.950;8.572;2023-08-12T04:44:14;100164.50;;;19.76;100.00
7441;BME280;29616;51.950;8.572;2023-08-12T04:46:46;100159.41;;;19.80;100.00
7441;BME280;29616;51.950;8.572;2023-08-12T04:49:17;100161.31;;;19.86;100.00
7441;BME280;29616;51.950;8.572;2023-08-12T04:51:46;100151.72;;;19.82;100.00
7441;BME280;29616;51.950;8.572;2023-08-12T04:54:19;100145.97;;;19.90;100.00
7441;BME280;29616;51.950;8.572;2023-08-12T04:56:51;100140.66;;;19.95;100.00
7441;BME280;29616;51.950;8.572;2023-08-12T04:59:21;100141.94;;;19.92;100.00
7441;BME280;29616;51.950;8.572;2023-08-12T05:01:51;100152.16;;;19.92;100.00
7441;BME280;29616;51.950;8.572;2023-08-12T05:04:32;100144.03;;;19.84;100.00
7441;BME280;29616;51.950;8.572;2023-08-12T05:07:00;100132.94;;;19.84;100.00
7441;BME280;29616;51.950;8.572;2023-08-12T05:09:30;100140.00;;;19.86;100.00
7441;BME280;29616;51.950;8.572;2023-08-12T05:12:03;100131.03;;;19.91;100.00
7441;BME280;29616;51.950;8.572;2023-08-12T05:14:32;100138.53;;;19.90;100.00
7441;BME280;29616;51.950;8.572;2023-08-12T05:17:04;100126.78;;;19.95;100.00
7441;BME280;29616;51.950;8.572;2023-08-12T05:19:37;100132.53;;;19.93;100.00
7441;BME280;29616;51.950;8.572;2023-08-12T05:22:07;100127.84;;;19.94;100.00
7441;BME280;29616;51.950;8.572;2023-08-12T05:24:38;100125.69;;;19.96;100.00
7441;BME280;29616;51.950;8.572;2023-08-12T05:27:07;100117.59;;;19.88;100.00
7441;BME280;29616;51.950;8.572;2023-08-12T05:29:36;100127.19;;;19.92;100.00
7441;BME280;29616;51.950;8.572;2023-08-12T05:32:09;100120.78;;;19.91;100.00
7441;BME280;29616;51.950;8.572;2023-08-12T05:34:39;100124.44;;;19.99;100.00
7441;BME280;29616;51.950;8.572;2023-08-12T05:37:08;100113.97;;;20.07;100.00
7441;BME280;29616;51.950;8.572;2023-08-12T05:39:37;100115.44;;;20.10;100.00
7441;BME280;29616;51.950;8.572;2023-08-12T05:42:06;100109.28;;;20.14;100.00
7441;BME280;29616;51.950;8.572;2023-08-12T05:44:41;100106.72;;;20.13;100.00
7441;BME280;29616;51.950;8.572;2023-08-12T05:47:15;100113.78;;;20.09;100.00
7441;BME280;29616;51.950;8.572;2023-08-12T05:49:43;100099.25;;;20.20;100.00
7441;BME280;29616;51.950;8.572;2023-08-12T05:52:16;100109.94;;;20.29;100.00
7441;BME280;29616;51.950;8.572;2023-08-12T05:54:45;100115.25;;;20.31;100.00
7441;BME280;29616;51.950;8.572;2023-08-12T05:57:16;100109.09;;;20.35;100.00
7441;BME280;29616;51.950;8.572;2023-08-12T05:59:45;100095.22;;;20.35;100.00
7441;BME280;29616;51.950;8.572;2023-08-12T06:02:16;100083.00;;;20.36;100.00
7441;BME280;29616;51.950;8.572;2023-08-12T06:04:46;100095.38;;;20.53;100.00
7441;BME280;29616;51.950;8.572;2023-08-12T06:07:15;100106.91;;;20.50;100.00
7441;BME280;29616;51.950;8.572;2023-08-12T06:09:47;100086.41;;;20.51;100.00
7441;BME280;29616;51.950;8.572;2023-08-12T06:12:16;100094.91;;;20.70;100.00
7441;BME280;29616;51.950;8.572;2023-08-12T06:14:45;100086.34;;;20.78;100.00
7441;BME280;29616;51.950;8.572;2023-08-12T06:17:20;100100.03;;;20.73;100.00
7441;BME280;29616;51.950;8.572;2023-08-12T06:19:49;100091.47;;;20.81;100.00
7441;BME280;29616;51.950;8.572;2023-08-12T06:22:19;100091.78;;;21.04;100.00
7441;BME280;29616;51.950;8.572;2023-08-12T06:24:48;100079.78;;;21.17;100.00
7441;BME280;29616;51.950;8.572;2023-08-12T06:27:19;100083.59;;;21.22;100.00
7441;BME280;29616;51.950;8.572;2023-08-12T06:29:48;100053.09;;;21.09;100.00
7441;BME280;29616;51.950;8.572;2023-08-12T06:32:19;100067.47;;;21.37;100.00
7441;BME280;29616;51.950;8.572;2023-08-12T06:34:48;100052.13;;;21.59;100.00
7441;BME280;29616;51.950;8.572;2023-08-12T06:37:18;100057.41;;;21.99;100.00
7441;BME280;29616;51.950;8.572;2023-08-12T06:39:46;100053.88;;;22.10;100.00
7441;BME280;29616;51.950;8.572;2023-08-12T06:42:18;100049.59;;;22.50;100.00
7441;BME280;29616;51.950;8.572;2023-08-12T06:44:59;100043.41;;;23.03;100.00
7441;BME280;29616;51.950;8.572;2023-08-12T06:47:33;100037.63;;;23.16;100.00
7441;BME280;29616;51.950;8.572;2023-08-12T06:50:03;100057.00;;;23.11;100.00
7441;BME280;29616;51.950;8.572;2023-08-12T06:52:31;100053.91;;;23.19;100.00
7441;BME280;29616;51.950;8.572;2023-08-12T06:55:01;100049.63;;;23.05;100.00
7441;BME280;29616;51.950;8.572;2023-08-12T06:57:30;100058.00;;;23.16;100.00
7441;BME280;29616;51.950;8.572;2023-08-12T07:00:00;100060.47;;;23.24;100.00
7441;BME280;29616;51.950;8.572;2023-08-12T07:02:30;100060.00;;;22.79;100.00
7441;BME280;29616;51.950;8.572;2023-08-12T07:05:04;100037.47;;;22.63;100.00
7441;BME280;29616;51.950;8.572;2023-08-12T07:07:36;100049.16;;;22.89;100.00
7441;BME280;29616;51.950;8.572;2023-08-12T07:10:09;100051.47;;;22.56;100.00
7441;BME280;29616;51.950;8.572;2023-08-12T07:12:38;100055.63;;;22.47;100.00
7441;BME280;29616;51.950;8.572;2023-08-12T07:15:08;100067.69;;;22.41;100.00
7441;BME280;29616;51.950;8.572;2023-08-12T07:17:39;100073.78;;;22.31;100.00
7441;BME280;29616;51.950;8.572;2023-08-12T07:20:11;100061.63;;;22.26;100.00
7441;BME280;29616;51.950;8.572;2023-08-12T07:22:46;100071.56;;;22.40;100.00
7441;BME280;29616;51.950;8.572;2023-08-12T07:25:14;100064.69;;;22.43;100.00
7441;BME280;29616;51.950;8.572;2023-08-12T07:27:45;100052.22;;;22.45;100.00
7441;BME280;29616;51.950;8.572;2023-08-12T07:30:17;100074.41;;;22.52;100.00
7441;BME280;29616;51.950;8.572;2023-08-12T07:32:48;100071.75;;;22.63;100.00
7441;BME280;29616;51.950;8.572;2023-08-12T07:35:21;100071.56;;;22.40;100.00
7441;BME280;29616;51.950;8.572;2023-08-12T07:37:50;100056.22;;;22.31;100.00
7441;BME280;29616;51.950;8.572;2023-08-12T07:40:22;100053.13;;;22.21;100.00
7441;BME280;29616;51.950;8.572;2023-08-12T07:42:51;100062.25;;;22.46;100.00
7441;BME280;29616;51.950;8.572;2023-08-12T07:45:21;100057.84;;;22.63;100.00
7441;BME280;29616;51.950;8.572;2023-08-12T07:47:51;100052.75;;;23.08;100.00
7441;BME280;29616;51.950;8.572;2023-08-12T07:50:24;100056.97;;;23.29;100.00
7441;BME280;29616;51.950;8.572;2023-08-12T07:52:54;100051.00;;;22.96;100.00
7441;BME280;29616;51.950;8.572;2023-08-12T07:55:32;100053.94;;;23.01;100.00
7441;BME280;29616;51.950;8.572;2023-08-12T07:58:08;100055.88;;;23.30;100.00
7441;BME280;29616;51.950;8.572;2023-08-12T08:00:37;100061.56;;;23.23;100.00
7441;BME280;29616;51.950;8.572;2023-08-12T08:03:05;100027.25;;;22.93;100.00
7441;BME280;29616;51.950;8.572;2023-08-12T08:05:39;100058.25;;;23.15;100.00
7441;BME280;29616;51.950;8.572;2023-08-12T08:08:09;100044.03;;;22.86;100.00
7441;BME280;29616;51.950;8.572;2023-08-12T08:10:38;100033.66;;;22.57;100.00
7441;BME280;29616;51.950;8.572;2023-08-12T08:13:06;100049.91;;;22.60;100.00
7441;BME280;29616;51.950;8.572;2023-08-12T08:15:35;100027.25;;;22.57;100.00
7441;BME280;29616;51.950;8.572;2023-08-12T08:18:07;100039.25;;;22.75;100.00
7441;BME280;29616;51.950;8.572;2023-08-12T08:20:37;100032.88;;;23.05;100.00
7441;BME280;29616;51.950;8.572;2023-08-12T08:23:07;100019.44;;;23.02;100.00
7441;BME280;29616;51.950;8.572;2023-08-12T08:25:35;100017.72;;;23.01;100.00
7441;BME280;29616;51.950;8.572;2023-08-12T08:28:04;100014.34;;;22.80;100.00
7441;BME280;29616;51.950;8.572;2023-08-12T08:30:34;100014.28;;;22.69;100.00
7441;BME280;29616;51.950;8.572;2023-08-12T08:33:04;100017.75;;;22.82;100.00
7441;BME280;29616;51.950;8.572;2023-08-12T08:35:39;100004.53;;;22.78;100.00
7441;BME280;29616;51.950;8.572;2023-08-12T08:38:12;100002.56;;;22.78;100.00
7441;BME280;29616;51.950;8.572;2023-08-12T08:40:44;100010.47;;;22.81;100.00
7441;BME280;29616;51.950;8.572;2023-08-12T08:43:20;100013.53;;;22.91;100.00
7441;BME280;29616;51.950;8.572;2023-08-12T08:45:53;100017.56;;;22.96;100.00
7441;BME280;29616;51.950;8.572;2023-08-12T08:48:22;100014.78;;;22.96;100.00
7441;BME280;29616;51.950;8.572;2023-08-12T08:50:54;100003.69;;;22.77;100.00
7441;BME280;29616;51.950;8.572;2023-08-12T08:53:24;100000.09;;;22.70;100.00
7441;BME280;29616;51.950;8.572;2023-08-12T08:55:58;100006.16;;;22.67;100.00
7441;BME280;29616;51.950;8.572;2023-08-12T08:58:29;100014.34;;;22.80;100.00
7441;BME280;29616;51.950;8.572;2023-08-12T09:01:02;100026.50;;;22.86;100.00
7441;BME280;29616;51.950;8.572;2023-08-12T09:03:31;100023.75;;;22.98;100.00
7441;BME280;29616;51.950;8.572;2023-08-12T09:06:05;100018.66;;;23.24;100.00
7441;BME280;29616;51.950;8.572;2023-08-12T09:08:34;100019.19;;;23.33;100.00
7441;BME280;29616;51.950;8.572;2023-08-12T09:11:08;100028.97;;;23.53;100.00
7441;BME280;29616;51.950;8.572;2023-08-12T09:13:41;100027.75;;;23.61;100.00
7441;BME280;29616;51.950;8.572;2023-08-12T09:16:15;100029.28;;;23.98;100.00
7441;BME280;29616;51.950;8.572;2023-08-12T09:18:49;100021.03;;;24.50;100.00
7441;BME280;29616;51.950;8.572;2023-08-12T09:21:28;100009.13;;;25.06;100.00
7441;BME280;29616;51.950;8.572;2023-08-12T09:23:57;100005.22;;;25.35;100.00
7441;BME280;29616;51.950;8.572;2023-08-12T09:26:31;100002.25;;;26.03;100.00
7441;BME280;29616;51.950;8.572;2023-08-12T09:29:02;100003.59;;;25.51;100.00
7441;BME280;29616;51.950;8.572;2023-08-12T09:31:31;100006.25;;;25.57;100.00
7441;BME280;29616;51.950;8.572;2023-08-12T09:34:05;100007.88;;;27.77;100.00
7441;BME280;29616;51.950;8.572;2023-08-12T09:36:36;100001.19;;;28.14;100.00
7441;BME280;29616;51.950;8.572;2023-08-12T09:39:07;99979.84;;;27.50;100.00
7441;BME280;29616;51.950;8.572;2023-08-12T09:41:37;99968.00;;;27.43;100.00
7441;BME280;29616;51.950;8.572;2023-08-12T09:44:06;99970.13;;;27.09;100.00
7441;BME280;29616;51.950;8.572;2023-08-12T09:46:36;99971.16;;;28.15;100.00
7441;BME280;29616;51.950;8.572;2023-08-12T09:49:07;99977.38;;;28.22;100.00
7441;BME280;29616;51.950;8.572;2023-08-12T09:51:39;99965.13;;;29.00;100.00
7441;BME280;29616;51.950;8.572;2023-08-12T09:54:10;99964.22;;;28.33;100.00
7441;BME280;29616;51.950;8.572;2023-08-12T09:56:43;99972.88;;;28.63;100.00
7441;BME280;29616;51.950;8.572;2023-08-12T09:59:19;99961.81;;;28.04;100.00
7441;BME280;29616;51.950;8.572;2023-08-12T10:01:50;99983.03;;;28.32;100.00
7441;BME280;29616;51.950;8.572;2023-08-12T10:04:29;99980.19;;;27.90;100.00
7441;BME280;29616;51.950;8.572;2023-08-12T10:07:00;99976.03;;;27.98;100.00
7441;BME280;29616;51.950;8.572;2023-08-12T10:09:32;99973.88;;;28.47;100.00
7441;BME280;29616;51.950;8.572;2023-08-12T10:12:04;99965.38;;;28.94;100.00
7441;BME280;29616;51.950;8.572;2023-08-12T10:14:33;99965.25;;;29.35;100.00
7441;BME280;29616;51.950;8.572;2023-08-12T10:17:02;99971.47;;;28.65;100.00
7441;BME280;29616;51.950;8.572;2023-08-12T10:19:34;99956.41;;;28.97;100.00
7441;BME280;29616;51.950;8.572;2023-08-12T10:22:08;99975.41;;;28.69;100.00
7441;BME280;29616;51.950;8.572;2023-08-12T10:24:43;99941.59;;;28.54;100.00
7441;BME280;29616;51.950;8.572;2023-08-12T10:27:19;99964.00;;;28.39;100.00
7441;BME280;29616;51.950;8.572;2023-08-12T10:29:51;99971.88;;;27.68;100.00
7441;BME280;29616;51.950;8.572;2023-08-12T10:32:21;99976.44;;;27.21;100.00
7441;BME280;29616;51.950;8.572;2023-08-12T10:34:55;99966.50;;;27.35;100.00
7441;BME280;29616;51.950;8.572;2023-08-12T10:37:27;99960.53;;;27.05;100.00
7441;BME280;29616;51.950;8.572;2023-08-12T10:40:03;99979.69;;;26.26;100.00
7441;BME280;29616;51.950;8.572;2023-08-12T10:42:44;99965.28;;;26.18;100.00
7441;BME280;29616;51.950;8.572;2023-08-12T10:45:17;99974.88;;;25.72;100.00
7441;BME280;29616;51.950;8.572;2023-08-12T10:48:15;99976.13;;;25.64;100.00
7441;BME280;29616;51.950;8.572;2023-08-12T10:50:56;99969.59;;;25.59;100.00
7441;BME280;29616;51.950;8.572;2023-08-12T10:53:28;99973.41;;;25.53;100.00
7441;BME280;29616;51.950;8.572;2023-08-12T10:56:04;99979.69;;;25.15;100.00
7441;BME280;29616;51.950;8.572;2023-08-12T10:58:35;99964.13;;;24.91;100.00
7441;BME280;29616;51.950;8.572;2023-08-12T11:01:13;99983.50;;;25.54;100.00
7441;BME280;29616;51.950;8.572;2023-08-12T11:03:47;99959.16;;;26.21;100.00
7441;BME280;29616;51.950;8.572;2023-08-12T11:06:16;99954.78;;;26.90;100.00
7441;BME280;29616;51.950;8.572;2023-08-12T11:08:54;99955.69;;;27.81;100.00
7441;BME280;29616;51.950;8.572;2023-08-12T11:11:24;99944.38;;;28.02;100.00
7441;BME280;29616;51.950;8.572;2023-08-12T11:13:57;99947.75;;;28.51;100.00
7441;BME280;29616;51.950;8.572;2023-08-12T11:16:37;99933.66;;;29.03;100.00
7441;BME280;29616;51.950;8.572;2023-08-12T11:19:13;99949.84;;;29.83;100.00
7441;BME280;29616;51.950;8.572;2023-08-12T11:21:44;99948.38;;;29.46;100.00
7441;BME280;29616;51.950;8.572;2023-08-12T11:24:18;99945.84;;;28.62;100.00
7441;BME280;29616;51.950;8.572;2023-08-12T11:26:48;99937.50;;;27.51;100.00
7441;BME280;29616;51.950;8.572;2023-08-12T11:29:18;99938.47;;;26.87;100.00
7441;BME280;29616;51.950;8.572;2023-08-12T11:31:49;99939.31;;;26.66;100.00
7441;BME280;29616;51.950;8.572;2023-08-12T11:34:20;99954.22;;;26.49;100.00
7441;BME280;29616;51.950;8.572;2023-08-12T11:36:49;99951.63;;;26.21;100.00
7441;BME280;29616;51.950;8.572;2023-08-12T11:39:22;99946.91;;;26.27;100.00
7441;BME280;29616;51.950;8.572;2023-08-12T11:41:51;99950.56;;;26.49;100.00
7441;BME280;29616;51.950;8.572;2023-08-12T11:44:22;99924.84;;;26.74;100.00
7441;BME280;29616;51.950;8.572;2023-08-12T11:46:51;99940.53;;;27.23;100.00
7441;BME280;29616;51.950;8.572;2023-08-12T11:49:24;99931.25;;;28.13;100.00
7441;BME280;29616;51.950;8.572;2023-08-12T11:51:52;99930.16;;;28.66;100.00
7441;BME280;29616;51.950;8.572;2023-08-12T11:54:25;99935.38;;;28.47;100.00
7441;BME280;29616;51.950;8.572;2023-08-12T11:56:58;99920.44;;;28.37;100.00
7441;BME280;29616;51.950;8.572;2023-08-12T11:59:27;99920.53;;;28.05;100.00
7441;BME280;29616;51.950;8.572;2023-08-12T12:01:57;99931.84;;;27.46;100.00
7441;BME280;29616;51.950;8.572;2023-08-12T12:04:26;99935.94;;;27.12;100.00
7441;BME280;29616;51.950;8.572;2023-08-12T12:06:55;99934.06;;;26.96;100.00
7441;BME280;29616;51.950;8.572;2023-08-12T12:09:27;99923.47;;;26.55;100.00
7441;BME280;29616;51.950;8.572;2023-08-12T12:11:56;99921.84;;;26.59;100.00
7441;BME280;29616;51.950;8.572;2023-08-12T12:14:28;99915.91;;;26.77;100.00
7441;BME280;29616;51.950;8.572;2023-08-12T12:16:56;99916.66;;;26.94;100.00
7441;BME280;29616;51.950;8.572;2023-08-12T12:19:25;99925.50;;;26.81;100.00
7441;BME280;29616;51.950;8.572;2023-08-12T12:21:56;99923.41;;;26.28;100.00
7441;BME280;29616;51.950;8.572;2023-08-12T12:24:29;99917.66;;;26.18;100.00
7441;BME280;29616;51.950;8.572;2023-08-12T12:26:58;99882.66;;;25.82;100.00
7441;BME280;29616;51.950;8.572;2023-08-12T12:29:27;99915.28;;;25.55;100.00
7441;BME280;29616;51.950;8.572;2023-08-12T12:31:57;99923.44;;;25.45;100.00
7441;BME280;29616;51.950;8.572;2023-08-12T12:34:29;99917.22;;;25.26;100.00
7441;BME280;29616;51.950;8.572;2023-08-12T12:36:59;99922.59;;;25.27;100.00
7441;BME280;29616;51.950;8.572;2023-08-12T12:39:29;99924.28;;;25.28;100.00
7441;BME280;29616;51.950;8.572;2023-08-12T12:41:58;99920.47;;;25.35;100.00
7441;BME280;29616;51.950;8.572;2023-08-12T12:44:27;99923.13;;;25.41;100.00
7441;BME280;29616;51.950;8.572;2023-08-12T12:46:56;99915.97;;;25.17;100.00
7441;BME280;29616;51.950;8.572;2023-08-12T12:49:29;99932.16;;;25.15;100.00
7441;BME280;29616;51.950;8.572;2023-08-12T12:51:57;99915.84;;;24.95;100.00
7441;BME280;29616;51.950;8.572;2023-08-12T12:54:29;99933.06;;;25.04;100.00
7441;BME280;29616;51.950;8.572;2023-08-12T12:56:59;99924.63;;;24.87;100.00
7441;BME280;29616;51.950;8.572;2023-08-12T12:59:30;99937.25;;;24.78;100.00
7441;BME280;29616;51.950;8.572;2023-08-12T13:01:59;99938.28;;;24.72;100.00
7441;BME280;29616;51.950;8.572;2023-08-12T13:04:27;99918.28;;;24.52;100.00
7441;BME280;29616;51.950;8.572;2023-08-12T13:07:02;99941.00;;;24.95;100.00
7441;BME280;29616;51.950;8.572;2023-08-12T13:09:32;99929.06;;;25.00;100.00
7441;BME280;29616;51.950;8.572;2023-08-12T13:12:01;99917.84;;;25.28;100.00
7441;BME280;29616;51.950;8.572;2023-08-12T13:14:32;99925.91;;;25.41;100.00